createdAt,value
2023-03-20T00:00:50.129Z,92.61
2023-03-20T00:01:50.097Z,92.61
2023-03-20T00:02:50.099Z,92.61
2023-03-20T00:03:50.364Z,92.51
2023-03-20T00:04:50.132Z,92.82
2023-03-20T00:05:50.058Z,92.93
2023-03-20T00:06:50.046Z,92.82
2023-03-20T00:07:50.048Z,92.61
2023-03-20T00:08:50.044Z,92.72
2023-03-20T00:09:50.012Z,92.61
2023-03-20T00:10:50.000Z,92.82
2023-03-20T00:11:49.992Z,92.82
2023-03-20T00:12:49.993Z,92.72
2023-03-20T00:13:49.970Z,92.82
2023-03-20T00:14:49.960Z,92.82
2023-03-20T00:15:49.980Z,92.93
2023-03-20T00:16:49.935Z,92.93
2023-03-20T00:17:49.931Z,93.02
2023-03-20T00:18:49.929Z,92.72
2023-03-20T00:19:49.914Z,92.51
2023-03-20T00:20:49.891Z,92.51
2023-03-20T00:21:49.882Z,92.55
2023-03-20T00:22:49.883Z,92.51
2023-03-20T00:23:49.873Z,92.41
2023-03-20T00:24:49.842Z,92.41
2023-03-20T00:25:49.863Z,92.61
2023-03-20T00:26:49.825Z,92.61
2023-03-20T00:27:49.823Z,92.41
2023-03-20T00:28:49.812Z,92.41
2023-03-20T00:29:49.803Z,92.21
2023-03-20T00:30:49.783Z,92.25
2023-03-20T00:31:49.803Z,92.25
2023-03-20T00:32:49.891Z,92.04
2023-03-20T00:33:49.771Z,92.35
2023-03-20T00:34:49.735Z,91.94
2023-03-20T00:35:49.742Z,91.84
2023-03-20T00:36:49.714Z,91.74
2023-03-20T00:37:49.724Z,91.94
2023-03-20T00:38:49.727Z,91.63
2023-03-20T00:39:49.696Z,91.63
2023-03-20T00:40:49.678Z,91.33
2023-03-20T00:41:49.666Z,91.42
2023-03-20T00:42:49.648Z,91.49
2023-03-20T00:43:49.664Z,91.63
2023-03-20T00:44:49.630Z,91.69
2023-03-20T00:45:49.616Z,92.04
2023-03-20T00:46:49.631Z,91.84
2023-03-20T00:47:49.653Z,91.63
2023-03-20T00:48:49.590Z,91.63
2023-03-20T00:49:49.574Z,91.74
2023-03-20T00:50:49.583Z,91.63
2023-03-20T00:51:49.547Z,91.33
2023-03-20T00:52:49.591Z,91.22
2023-03-20T00:53:49.540Z,91.22
2023-03-20T00:54:49.520Z,91.53
2023-03-20T00:55:49.499Z,91.53
2023-03-20T00:56:49.501Z,91.42
2023-03-20T00:57:49.510Z,91.22
2023-03-20T00:58:49.482Z,91.22
2023-03-20T00:59:49.483Z,91.22
2023-03-20T01:00:49.470Z,91.42
2023-03-20T01:01:49.467Z,91.33
2023-03-20T01:02:49.453Z,91.22
2023-03-20T01:03:49.444Z,91.12
2023-03-20T01:04:49.421Z,91.12
2023-03-20T01:05:49.401Z,91.22
2023-03-20T01:06:49.384Z,91.12
2023-03-20T01:07:49.391Z,91.22
2023-03-20T01:08:49.390Z,91.12
2023-03-20T01:09:49.370Z,91.12
2023-03-20T01:10:49.352Z,91.02
2023-03-20T01:11:49.330Z,91.02
2023-03-20T01:12:49.315Z,91.12
2023-03-20T01:13:49.355Z,91.02
2023-03-20T01:14:49.299Z,91.02
2023-03-20T01:15:49.284Z,91.12
2023-03-20T01:16:49.369Z,90.91
2023-03-20T01:17:49.271Z,91.02
2023-03-20T01:18:49.268Z,90.91
2023-03-20T01:19:49.242Z,91.12
2023-03-20T01:20:49.261Z,91.02
2023-03-20T01:21:49.230Z,91.02
2023-03-20T01:22:49.214Z,91.02
2023-03-20T01:23:49.224Z,90.91
2023-03-20T01:24:49.196Z,90.91
2023-03-20T01:25:49.187Z,91.02
2023-03-20T01:26:49.167Z,90.91
2023-03-20T01:27:49.167Z,91.02
2023-03-20T01:28:49.163Z,91.12
2023-03-20T01:29:49.158Z,91.12
2023-03-20T01:30:49.116Z,91.12
2023-03-20T01:31:49.175Z,91.02
2023-03-20T01:32:49.135Z,90.91
2023-03-20T01:33:49.105Z,91.12
2023-03-20T01:34:49.093Z,91.02
2023-03-20T01:35:49.125Z,91.02
2023-03-20T01:36:49.056Z,91.02
2023-03-20T01:37:49.048Z,90.75
2023-03-20T01:38:49.042Z,90.75
2023-03-20T01:39:49.046Z,90.75
2023-03-20T01:40:49.026Z,90.55
2023-03-20T01:41:49.009Z,90.55
2023-03-20T01:42:48.995Z,90.44
2023-03-20T01:43:48.994Z,90.34
2023-03-20T01:44:48.977Z,90.44
2023-03-20T01:45:48.982Z,90.44
2023-03-20T01:46:48.964Z,90.34
2023-03-20T01:47:48.945Z,90.24
2023-03-20T01:48:48.932Z,90.24
2023-03-20T01:49:48.928Z,90.24
2023-03-20T01:50:48.905Z,90.24
2023-03-20T01:51:48.895Z,90.24
2023-03-20T01:52:48.885Z,90.24
2023-03-20T01:53:48.878Z,90.34
2023-03-20T01:54:48.870Z,90.44
2023-03-20T01:55:48.946Z,90.24
2023-03-20T01:56:48.866Z,90.24
2023-03-20T01:57:48.833Z,90.34
2023-03-20T01:58:48.828Z,90.24
2023-03-20T01:59:48.816Z,90.24
2023-03-20T02:00:48.856Z,90.34
2023-03-20T02:01:48.799Z,90.24
2023-03-20T02:02:48.804Z,90.24
2023-03-20T02:03:48.810Z,90.24
2023-03-20T02:04:48.944Z,90.44
2023-03-20T02:06:10.032Z,90.34
2023-03-20T02:06:48.740Z,90.34
2023-03-20T02:07:48.730Z,90.44
2023-03-20T02:08:48.712Z,90.55
2023-03-20T02:09:48.702Z,90.55
2023-03-20T02:10:48.687Z,90.55
2023-03-20T02:11:48.684Z,90.65
2023-03-20T02:12:48.739Z,90.75
2023-03-20T02:13:48.660Z,90.44
2023-03-20T02:14:48.639Z,90.34
2023-03-20T02:15:48.630Z,90.34
2023-03-20T02:16:48.679Z,90.55
2023-03-20T02:17:48.613Z,90.65
2023-03-20T02:18:48.616Z,90.59
2023-03-20T02:19:48.599Z,90.69
2023-03-20T02:20:48.583Z,90.59
2023-03-20T02:21:48.561Z,90.48
2023-03-20T02:22:48.543Z,90.48
2023-03-20T02:23:48.563Z,90.59
2023-03-20T02:24:48.522Z,90.59
2023-03-20T02:25:48.512Z,90.69
2023-03-20T02:26:48.507Z,90.69
2023-03-20T02:27:48.502Z,90.59
2023-03-20T02:28:48.493Z,90.59
2023-03-20T02:29:48.488Z,90.69
2023-03-20T02:30:48.501Z,90.59
2023-03-20T02:31:48.451Z,90.80
2023-03-20T02:32:48.503Z,90.69
2023-03-20T02:33:48.439Z,90.80
2023-03-20T02:34:48.411Z,90.80
2023-03-20T02:35:48.430Z,90.80
2023-03-20T02:36:48.391Z,90.69
2023-03-20T02:37:48.392Z,90.69
2023-03-20T02:38:48.392Z,90.69
2023-03-20T02:39:48.380Z,90.80
2023-03-20T02:40:48.352Z,90.69
2023-03-20T02:41:48.371Z,90.69
2023-03-20T02:42:48.327Z,90.80
2023-03-20T02:43:48.345Z,90.89
2023-03-20T02:44:48.303Z,90.80
2023-03-20T02:45:48.320Z,90.80
2023-03-20T02:46:48.282Z,90.89
2023-03-20T02:47:48.286Z,90.83
2023-03-20T02:48:48.266Z,90.83
2023-03-20T02:49:48.253Z,90.83
2023-03-20T02:50:48.243Z,90.94
2023-03-20T02:51:48.237Z,91.04
2023-03-20T02:52:48.220Z,91.25
2023-03-20T02:53:48.226Z,91.45
2023-03-20T02:54:48.186Z,91.45
2023-03-20T02:55:48.199Z,91.25
2023-03-20T02:56:48.180Z,91.45
2023-03-20T02:57:48.162Z,91.55
2023-03-20T02:58:48.157Z,91.70
2023-03-20T02:59:48.142Z,91.60
2023-03-20T03:00:48.148Z,91.49
2023-03-20T03:01:48.175Z,91.49
2023-03-20T03:02:48.201Z,91.39
2023-03-20T03:03:48.107Z,91.29
2023-03-20T03:04:48.096Z,91.29
2023-03-20T03:05:48.085Z,91.19
2023-03-20T03:06:48.057Z,90.98
2023-03-20T03:07:48.061Z,90.81
2023-03-20T03:08:48.054Z,90.72
2023-03-20T03:09:48.036Z,90.61
2023-03-20T03:10:48.017Z,90.72
2023-03-20T03:11:48.013Z,90.92
2023-03-20T03:12:47.989Z,91.33
2023-03-20T03:13:48.230Z,91.27
2023-03-20T03:14:47.987Z,91.27
2023-03-20T03:15:48.039Z,91.27
2023-03-20T03:16:47.953Z,91.38
2023-03-20T03:17:47.956Z,91.58
2023-03-20T03:18:47.940Z,91.68
2023-03-20T03:19:47.928Z,91.68
2023-03-20T03:20:47.918Z,91.68
2023-03-20T03:21:47.912Z,91.68
2023-03-20T03:22:47.902Z,91.78
2023-03-20T03:23:47.910Z,91.78
2023-03-20T03:24:47.872Z,91.58
2023-03-20T03:25:47.859Z,91.58
2023-03-20T03:26:47.849Z,91.68
2023-03-20T03:27:47.846Z,91.68
2023-03-20T03:28:47.838Z,91.68
2023-03-20T03:29:47.831Z,91.99
2023-03-20T03:30:47.808Z,92.20
2023-03-20T03:31:47.804Z,92.40
2023-03-20T03:32:47.816Z,92.61
2023-03-20T03:33:47.774Z,92.61
2023-03-20T03:34:47.778Z,92.30
2023-03-20T03:35:47.790Z,92.50
2023-03-20T03:36:47.731Z,92.71
2023-03-20T03:37:47.731Z,93.02
2023-03-20T03:38:47.721Z,93.23
2023-03-20T03:39:47.710Z,93.33
2023-03-20T03:40:47.706Z,93.23
2023-03-20T03:41:47.682Z,93.33
2023-03-20T03:42:47.662Z,93.33
2023-03-20T03:43:47.672Z,93.23
2023-03-20T03:44:47.642Z,93.33
2023-03-20T03:45:47.636Z,93.39
2023-03-20T03:46:47.678Z,93.39
2023-03-20T03:47:47.604Z,93.39
2023-03-20T03:48:47.612Z,93.80
2023-03-20T03:49:47.594Z,94.01
2023-03-20T03:50:47.586Z,94.01
2023-03-20T03:51:47.577Z,93.90
2023-03-20T03:52:47.568Z,93.59
2023-03-20T03:53:47.573Z,93.39
2023-03-20T03:54:47.535Z,93.18
2023-03-20T03:55:47.553Z,92.97
2023-03-20T03:56:47.517Z,92.71
2023-03-20T03:57:47.495Z,93.12
2023-03-20T03:58:47.508Z,93.23
2023-03-20T03:59:47.476Z,93.12
2023-03-20T04:00:47.477Z,92.82
2023-03-20T04:01:47.502Z,92.61
2023-03-20T04:02:47.489Z,92.61
2023-03-20T04:03:47.438Z,92.71
2023-03-20T04:04:47.512Z,93.12
2023-03-20T04:05:47.415Z,93.23
2023-03-20T04:06:47.408Z,93.33
2023-03-20T04:07:47.389Z,93.74
2023-03-20T04:08:47.437Z,93.95
2023-03-20T04:09:47.368Z,94.15
2023-03-20T04:10:47.383Z,94.36
2023-03-20T04:11:47.351Z,94.46
2023-03-20T04:12:47.349Z,94.36
2023-03-20T04:13:47.340Z,94.36
2023-03-20T04:14:47.324Z,94.26
2023-03-20T04:15:47.324Z,94.26
2023-03-20T04:16:47.304Z,94.15
2023-03-20T04:17:47.281Z,94.26
2023-03-20T04:18:47.297Z,94.36
2023-03-20T04:19:47.261Z,94.46
2023-03-20T04:20:47.262Z,94.56
2023-03-20T04:21:47.244Z,94.56
2023-03-20T04:22:47.243Z,94.56
2023-03-20T04:23:47.255Z,94.46
2023-03-20T04:24:47.219Z,94.46
2023-03-20T04:25:47.198Z,94.36
2023-03-20T04:26:47.195Z,94.36
2023-03-20T04:27:47.168Z,94.46
2023-03-20T04:28:47.177Z,94.46
2023-03-20T04:29:47.156Z,94.46
2023-03-20T04:30:47.142Z,94.36
2023-03-20T04:31:47.227Z,94.36
2023-03-20T04:32:47.168Z,94.36
2023-03-20T04:33:47.114Z,94.26
2023-03-20T04:34:47.097Z,94.26
2023-03-20T04:35:47.143Z,94.36
2023-03-20T04:36:47.080Z,94.26
2023-03-20T04:37:47.066Z,94.15
2023-03-20T04:38:47.084Z,94.05
2023-03-20T04:39:47.060Z,94.05
2023-03-20T04:40:47.053Z,94.15
2023-03-20T04:41:47.020Z,94.15
2023-03-20T04:42:47.027Z,94.26
2023-03-20T04:43:47.043Z,94.36
2023-03-20T04:44:46.986Z,94.26
2023-03-20T04:45:47.027Z,94.26
2023-03-20T04:46:46.968Z,94.30
2023-03-20T04:47:46.956Z,94.30
2023-03-20T04:48:46.958Z,94.30
2023-03-20T04:49:46.928Z,94.09
2023-03-20T04:50:46.926Z,94.09
2023-03-20T04:51:46.921Z,93.88
2023-03-20T04:52:46.906Z,93.79
2023-03-20T04:53:46.899Z,93.68
2023-03-20T04:54:46.879Z,93.68
2023-03-20T04:55:46.871Z,93.68
2023-03-20T04:56:46.858Z,93.68
2023-03-20T04:57:46.839Z,93.68
2023-03-20T04:58:46.851Z,93.62
2023-03-20T04:59:46.819Z,93.52
2023-03-20T05:00:46.869Z,93.52
2023-03-20T05:01:46.805Z,93.83
2023-03-20T05:02:46.800Z,93.93
2023-03-20T05:03:46.835Z,94.03
2023-03-20T05:04:46.779Z,93.93
2023-03-20T05:05:46.764Z,94.03
2023-03-20T05:06:46.747Z,94.13
2023-03-20T05:07:46.748Z,94.03
2023-03-20T05:08:46.757Z,93.93
2023-03-20T05:09:46.716Z,93.93
2023-03-20T05:10:46.709Z,94.03
2023-03-20T05:11:46.706Z,94.03
2023-03-20T05:12:46.678Z,94.03
2023-03-20T05:13:46.687Z,94.13
2023-03-20T05:14:46.758Z,94.13
2023-03-20T05:15:46.669Z,94.13
2023-03-20T05:16:46.688Z,94.34
2023-03-20T05:17:46.736Z,94.24
2023-03-20T05:18:46.633Z,94.24
2023-03-20T05:19:46.612Z,94.13
2023-03-20T05:20:46.588Z,94.34
2023-03-20T05:21:46.577Z,94.28
2023-03-20T05:22:46.572Z,94.38
2023-03-20T05:23:46.580Z,94.70
2023-03-20T05:24:46.549Z,94.80
2023-03-20T05:25:46.611Z,94.76
2023-03-20T05:26:46.523Z,94.80
2023-03-20T05:27:46.528Z,94.96
2023-03-20T05:28:46.521Z,94.96
2023-03-20T05:29:46.578Z,94.96
2023-03-20T05:30:46.538Z,95.10
2023-03-20T05:31:46.484Z,95.21
2023-03-20T05:32:46.527Z,95.10
2023-03-20T05:33:46.474Z,95.21
2023-03-20T05:34:46.472Z,95.10
2023-03-20T05:35:46.583Z,95.21
2023-03-20T05:36:46.442Z,95.00
2023-03-20T05:37:46.420Z,94.90
2023-03-20T05:38:46.398Z,94.90
2023-03-20T05:39:46.398Z,94.80
2023-03-20T05:40:46.386Z,94.70
2023-03-20T05:41:46.372Z,94.80
2023-03-20T05:42:46.350Z,95.05
2023-03-20T05:43:46.355Z,94.84
2023-03-20T05:44:46.333Z,94.74
2023-03-20T05:45:46.365Z,94.84
2023-03-20T05:46:46.325Z,95.05
2023-03-20T05:47:46.300Z,95.05
2023-03-20T05:48:46.304Z,95.25
2023-03-20T05:49:46.280Z,95.25
2023-03-20T05:50:46.270Z,95.46
2023-03-20T05:51:46.266Z,95.36
2023-03-20T05:52:46.251Z,95.40
2023-03-20T05:53:46.240Z,95.30
2023-03-20T05:54:46.220Z,95.09
2023-03-20T05:55:46.222Z,95.09
2023-03-20T05:56:46.252Z,95.20
2023-03-20T05:57:46.200Z,95.30
2023-03-20T05:58:46.196Z,95.50
2023-03-20T05:59:46.170Z,95.61
2023-03-20T06:00:46.154Z,95.71
2023-03-20T06:01:46.149Z,95.81
2023-03-20T06:02:47.457Z,95.81
2023-03-20T06:03:46.181Z,95.71
2023-03-20T06:04:46.103Z,95.50
2023-03-20T06:05:46.378Z,95.30
2023-03-20T06:06:46.083Z,95.20
2023-03-20T06:07:46.089Z,95.09
2023-03-20T06:08:46.087Z,95.20
2023-03-20T06:09:46.992Z,95.30
2023-03-20T06:10:46.474Z,95.30
2023-03-20T06:11:46.106Z,95.20
2023-03-20T06:12:46.026Z,95.40
2023-03-20T06:13:46.029Z,95.50
2023-03-20T06:14:46.012Z,95.61
2023-03-20T06:15:46.009Z,95.71
2023-03-20T06:16:45.988Z,95.81
2023-03-20T06:17:45.977Z,95.81
2023-03-20T06:18:45.967Z,95.81
2023-03-20T06:19:45.955Z,95.81
2023-03-20T06:20:45.945Z,95.71
2023-03-20T06:21:45.938Z,95.71
2023-03-20T06:22:45.937Z,95.87
2023-03-20T06:23:45.927Z,95.98
2023-03-20T06:24:45.893Z,95.98
2023-03-20T06:25:45.917Z,95.87
2023-03-20T06:26:45.882Z,95.87
2023-03-20T06:27:45.875Z,96.02
2023-03-20T06:28:45.868Z,95.92
2023-03-20T06:29:45.840Z,95.81
2023-03-20T06:30:45.834Z,95.87
2023-03-20T06:31:45.831Z,95.87
2023-03-20T06:32:45.838Z,96.08
2023-03-20T06:33:45.806Z,96.18
2023-03-20T06:34:45.797Z,96.18
2023-03-20T06:35:45.862Z,96.08
2023-03-20T06:36:45.759Z,96.18
2023-03-20T06:37:45.758Z,96.18
2023-03-20T06:38:45.761Z,96.39
2023-03-20T06:39:45.728Z,96.18
2023-03-20T06:40:45.707Z,96.08
2023-03-20T06:41:45.747Z,95.98
2023-03-20T06:42:45.686Z,95.98
2023-03-20T06:43:45.707Z,95.98
2023-03-20T06:44:45.682Z,95.93
2023-03-20T06:45:45.669Z,95.93
2023-03-20T06:46:45.685Z,96.03
2023-03-20T06:47:45.643Z,96.03
2023-03-20T06:48:45.646Z,95.83
2023-03-20T06:49:46.102Z,95.83
2023-03-20T06:50:45.608Z,95.83
2023-03-20T06:51:45.587Z,95.78
2023-03-20T06:52:45.581Z,96.09
2023-03-20T06:53:45.590Z,95.95
2023-03-20T06:54:45.562Z,95.43
2023-03-20T06:55:45.554Z,95.02
2023-03-20T06:56:45.560Z,94.77
2023-03-20T06:57:45.530Z,94.56
2023-03-20T06:58:45.537Z,94.15
2023-03-20T06:59:45.524Z,93.64
2023-03-20T07:00:45.498Z,93.02
2023-03-20T07:01:45.538Z,92.50
2023-03-20T07:02:45.477Z,92.40
2023-03-20T07:03:45.470Z,92.20
2023-03-20T07:04:45.495Z,92.10
2023-03-20T07:05:45.456Z,92.40
2023-03-20T07:06:45.444Z,92.61
2023-03-20T07:07:45.426Z,92.71
2023-03-20T07:08:45.414Z,91.89
2023-03-20T07:09:45.399Z,92.10
2023-03-20T07:10:45.418Z,91.95
2023-03-20T07:11:45.374Z,91.95
2023-03-20T07:12:45.374Z,91.85
2023-03-20T07:13:46.463Z,91.68
2023-03-20T07:14:45.357Z,91.68
2023-03-20T07:16:01.298Z,91.74
2023-03-20T07:16:46.343Z,92.05
2023-03-20T07:17:45.319Z,92.05
2023-03-20T07:18:45.308Z,92.05
2023-03-20T07:19:45.298Z,92.05
2023-03-20T07:20:45.718Z,92.16
2023-03-20T07:21:45.279Z,92.52
2023-03-20T07:22:45.273Z,92.93
2023-03-20T07:23:45.273Z,92.32
2023-03-20T07:24:47.228Z,92.42
2023-03-20T07:25:45.631Z,92.42
2023-03-20T07:26:45.231Z,91.97
2023-03-20T07:27:45.200Z,92.07
2023-03-20T07:28:45.224Z,91.35
2023-03-20T07:29:45.312Z,91.51
2023-03-20T07:30:45.213Z,90.18
2023-03-20T07:31:45.189Z,90.55
2023-03-20T07:32:45.187Z,89.42
2023-03-20T07:33:45.174Z,88.80
2023-03-20T07:34:45.132Z,89.01
2023-03-20T07:35:45.216Z,88.49
2023-03-20T07:36:45.310Z,88.24
2023-03-20T07:37:45.190Z,87.67
2023-03-20T07:38:45.223Z,88.35
2023-03-20T07:39:45.211Z,88.66
2023-03-20T07:40:45.260Z,88.86
2023-03-20T07:41:45.164Z,88.45
2023-03-20T07:42:45.319Z,88.45
2023-03-20T07:43:45.155Z,88.45
2023-03-20T07:44:45.135Z,88.56
2023-03-20T07:45:45.094Z,88.66
2023-03-20T07:46:45.081Z,88.14
2023-03-20T07:47:45.008Z,87.22
2023-03-20T07:48:45.011Z,87.84
2023-03-20T07:49:44.961Z,87.94
2023-03-20T07:50:45.004Z,88.35
2023-03-20T07:51:44.943Z,88.14
2023-03-20T07:52:44.940Z,87.73
2023-03-20T07:53:44.942Z,88.24
2023-03-20T07:54:45.041Z,86.91
2023-03-20T07:55:44.902Z,85.99
2023-03-20T07:56:44.904Z,85.06
2023-03-20T07:57:44.895Z,85.27
2023-03-20T07:58:44.936Z,85.47
2023-03-20T07:59:44.861Z,84.90
2023-03-20T08:00:44.974Z,84.86
2023-03-20T08:01:44.866Z,85.68
2023-03-20T08:02:45.076Z,86.09
2023-03-20T08:03:44.943Z,85.78
2023-03-20T08:04:44.834Z,86.30
2023-03-20T08:05:47.224Z,86.30
2023-03-20T08:06:44.782Z,85.58
2023-03-20T08:07:44.771Z,85.99
2023-03-20T08:08:44.801Z,86.19
2023-03-20T08:09:44.773Z,86.19
2023-03-20T08:10:44.742Z,86.30
2023-03-20T08:11:44.775Z,85.68
2023-03-20T08:12:44.848Z,85.68
2023-03-20T08:13:44.733Z,85.68
2023-03-20T08:14:44.714Z,85.17
2023-03-20T08:15:44.690Z,85.27
2023-03-20T08:16:44.720Z,85.58
2023-03-20T08:17:44.674Z,85.89
2023-03-20T08:18:44.693Z,85.99
2023-03-20T08:19:44.649Z,85.68
2023-03-20T08:20:44.662Z,85.17
2023-03-20T08:21:44.634Z,84.76
2023-03-20T08:22:44.619Z,84.76
2023-03-20T08:23:44.616Z,84.96
2023-03-20T08:24:44.599Z,84.96
2023-03-20T08:25:44.810Z,85.44
2023-03-20T08:26:44.582Z,85.03
2023-03-20T08:27:44.553Z,86.15
2023-03-20T08:28:47.816Z,85.64
2023-03-20T08:29:44.536Z,85.64
2023-03-20T08:30:44.610Z,85.33
2023-03-20T08:31:44.519Z,84.31
2023-03-20T08:32:44.539Z,82.56
2023-03-20T08:33:44.516Z,82.15
2023-03-20T08:34:44.512Z,82.15
2023-03-20T08:35:44.629Z,82.77
2023-03-20T08:36:44.532Z,82.87
2023-03-20T08:37:44.469Z,82.56
2023-03-20T08:38:44.460Z,82.36
2023-03-20T08:39:44.446Z,80.62
2023-03-20T08:40:44.416Z,81.54
2023-03-20T08:41:44.408Z,81.74
2023-03-20T08:42:44.416Z,81.85
2023-03-20T08:43:44.495Z,81.43
2023-03-20T08:44:44.387Z,81.43
2023-03-20T08:45:44.396Z,80.21
2023-03-20T08:46:44.367Z,80.82
2023-03-20T08:47:44.393Z,82.15
2023-03-20T08:48:44.399Z,82.26
2023-03-20T08:49:44.380Z,80.62
2023-03-20T08:50:44.375Z,78.77
2023-03-20T08:51:44.379Z,78.97
2023-03-20T08:52:44.467Z,79.80
2023-03-20T08:53:44.309Z,80.07
2023-03-20T08:54:44.461Z,79.75
2023-03-20T08:55:44.276Z,80.27
2023-03-20T08:56:44.766Z,80.07
2023-03-20T08:57:44.257Z,80.07
2023-03-20T08:58:44.238Z,79.35
2023-03-20T08:59:44.206Z,79.21
2023-03-20T09:00:44.226Z,79.41
2023-03-20T09:01:49.706Z,79.31
2023-03-20T09:02:45.222Z,78.59
2023-03-20T09:03:44.195Z,79.11
2023-03-20T09:04:44.181Z,77.67
2023-03-20T09:05:44.160Z,79.00
2023-03-20T09:06:44.141Z,77.77
2023-03-20T09:07:44.180Z,77.36
2023-03-20T09:08:44.141Z,77.12
2023-03-20T09:09:44.117Z,76.44
2023-03-20T09:10:44.187Z,76.72
2023-03-20T09:11:44.132Z,77.73
2023-03-20T09:12:44.111Z,77.43
2023-03-20T09:13:44.512Z,77.23
2023-03-20T09:14:44.090Z,76.10
2023-03-20T09:15:44.060Z,77.43
2023-03-20T09:16:44.020Z,78.05
2023-03-20T09:17:44.018Z,77.43
2023-03-20T09:18:44.156Z,77.33
2023-03-20T09:19:44.030Z,77.91
2023-03-20T09:20:43.985Z,78.21
2023-03-20T09:21:43.964Z,77.70
2023-03-20T09:22:43.954Z,77.50
2023-03-20T09:23:43.962Z,76.78
2023-03-20T09:24:43.953Z,77.60
2023-03-20T09:25:43.947Z,74.73
2023-03-20T09:26:43.931Z,75.04
2023-03-20T09:27:43.925Z,75.65
2023-03-20T09:28:43.982Z,74.84
2023-03-20T09:29:44.042Z,74.94
2023-03-20T09:30:44.098Z,74.11
2023-03-20T09:31:43.928Z,75.76
2023-03-20T09:32:43.935Z,75.04
2023-03-20T09:33:43.836Z,75.55
2023-03-20T09:34:43.814Z,74.84
2023-03-20T09:35:44.120Z,76.17
2023-03-20T09:36:43.803Z,75.96
2023-03-20T09:37:43.812Z,76.78
2023-03-20T09:38:44.059Z,76.37
2023-03-20T09:39:43.850Z,76.37
2023-03-20T09:40:43.756Z,76.47
2023-03-20T09:41:56.294Z,74.94
2023-03-20T09:42:44.747Z,76.23
2023-03-20T09:43:43.749Z,75.62
2023-03-20T09:44:43.708Z,75.52
2023-03-20T09:45:43.697Z,73.50
2023-03-20T09:46:43.720Z,74.22
2023-03-20T09:47:43.725Z,75.04
2023-03-20T09:48:43.659Z,74.84
2023-03-20T09:49:43.667Z,73.71
2023-03-20T09:50:43.669Z,74.73
2023-03-20T09:51:43.748Z,75.45
2023-03-20T09:52:43.642Z,74.73
2023-03-20T09:53:43.701Z,74.80
2023-03-20T09:54:53.971Z,75.42
2023-03-20T09:55:44.775Z,76.13
2023-03-20T09:56:43.584Z,75.52
2023-03-20T09:57:43.563Z,74.26
2023-03-20T09:58:43.595Z,73.94
2023-03-20T09:59:43.550Z,74.15
2023-03-20T10:00:43.551Z,73.85
2023-03-20T10:01:43.575Z,74.05
2023-03-20T10:02:43.552Z,74.26
2023-03-20T10:03:43.519Z,74.15
2023-03-20T10:04:43.637Z,73.33
2023-03-20T10:05:43.497Z,73.94
2023-03-20T10:06:43.465Z,72.62
2023-03-20T10:07:43.456Z,71.42
2023-03-20T10:08:43.476Z,72.65
2023-03-20T10:09:43.434Z,73.06
2023-03-20T10:10:43.445Z,72.96
2023-03-20T10:11:43.404Z,73.16
2023-03-20T10:12:43.415Z,71.83
2023-03-20T10:13:43.395Z,72.17
2023-03-20T10:14:43.377Z,72.69
2023-03-20T10:15:43.374Z,72.78
2023-03-20T10:16:43.357Z,73.47
2023-03-20T10:17:43.343Z,73.57
2023-03-20T10:18:43.393Z,74.29
2023-03-20T10:19:43.325Z,73.27
2023-03-20T10:20:43.306Z,71.97
2023-03-20T10:21:43.299Z,73.20
2023-03-20T10:22:43.286Z,74.19
2023-03-20T10:23:43.293Z,73.47
2023-03-20T10:24:43.268Z,73.36
2023-03-20T10:25:43.246Z,73.54
2023-03-20T10:26:43.245Z,73.64
2023-03-20T10:27:43.289Z,73.33
2023-03-20T10:28:43.231Z,73.13
2023-03-20T10:29:43.209Z,72.11
2023-03-20T10:30:43.213Z,72.72
2023-03-20T10:31:43.271Z,72.21
2023-03-20T10:32:43.253Z,73.13
2023-03-20T10:33:43.225Z,72.92
2023-03-20T10:34:43.158Z,72.52
2023-03-20T10:35:43.191Z,73.71
2023-03-20T10:36:43.140Z,72.89
2023-03-20T10:37:43.110Z,72.17
2023-03-20T10:38:43.170Z,72.07
2023-03-20T10:39:43.109Z,72.58
2023-03-20T10:40:43.094Z,72.58
2023-03-20T10:41:43.083Z,72.38
2023-03-20T10:42:43.076Z,72.58
2023-03-20T10:43:43.492Z,72.17
2023-03-20T10:44:43.065Z,71.25
2023-03-20T10:45:43.038Z,71.15
2023-03-20T10:46:43.067Z,69.72
2023-03-20T10:47:43.052Z,70.57
2023-03-20T10:48:43.013Z,70.06
2023-03-20T10:49:43.001Z,70.16
2023-03-20T10:50:42.984Z,69.96
2023-03-20T10:51:42.957Z,70.16
2023-03-20T10:52:42.983Z,70.84
2023-03-20T10:53:42.955Z,71.15
2023-03-20T10:54:42.949Z,70.34
2023-03-20T10:55:42.996Z,69.52
2023-03-20T10:56:42.904Z,71.25
2023-03-20T10:57:42.914Z,70.57
2023-03-20T10:58:42.905Z,71.87
2023-03-20T10:59:43.028Z,72.07
2023-03-20T11:00:42.884Z,72.11
2023-03-20T11:01:42.856Z,71.70
2023-03-20T11:02:42.851Z,70.78
2023-03-20T11:03:42.863Z,71.70
2023-03-20T11:04:42.832Z,72.41
2023-03-20T11:05:43.109Z,72.24
2023-03-20T11:06:42.811Z,72.65
2023-03-20T11:07:42.794Z,72.75
2023-03-20T11:08:42.810Z,73.78
2023-03-20T11:09:42.772Z,72.96
2023-03-20T11:10:42.769Z,72.04
2023-03-20T11:11:43.054Z,72.75
2023-03-20T11:12:42.740Z,72.69
2023-03-20T11:13:42.767Z,72.38
2023-03-20T11:14:42.742Z,72.07
2023-03-20T11:15:42.697Z,72.89
2023-03-20T11:16:42.819Z,73.81
2023-03-20T11:17:43.057Z,73.50
2023-03-20T11:18:42.714Z,73.98
2023-03-20T11:19:42.722Z,74.60
2023-03-20T11:20:42.670Z,75.01
2023-03-20T11:21:42.635Z,73.88
2023-03-20T11:22:42.645Z,74.19
2023-03-20T11:23:42.624Z,74.56
2023-03-20T11:24:42.618Z,74.15
2023-03-20T11:25:42.673Z,74.56
2023-03-20T11:26:42.621Z,74.26
2023-03-20T11:27:42.682Z,73.44
2023-03-20T11:28:42.634Z,73.64
2023-03-20T11:29:45.567Z,73.54
2023-03-20T11:31:01.442Z,73.85
2023-03-20T11:31:43.571Z,73.03
2023-03-20T11:32:42.532Z,72.31
2023-03-20T11:33:42.542Z,71.49
2023-03-20T11:34:42.758Z,70.37
2023-03-20T11:35:42.986Z,71.80
2023-03-20T11:36:48.905Z,71.49
2023-03-20T11:37:43.457Z,70.26
2023-03-20T11:38:42.479Z,70.57
2023-03-20T11:39:42.461Z,70.26
2023-03-20T11:40:43.110Z,70.88
2023-03-20T11:41:42.408Z,72.21
2023-03-20T11:42:42.398Z,70.78
2023-03-20T11:43:42.419Z,69.58
2023-03-20T11:44:45.603Z,70.09
2023-03-20T11:45:44.441Z,70.71
2023-03-20T11:46:44.578Z,71.01
2023-03-20T11:47:43.972Z,71.53
2023-03-20T11:48:45.896Z,71.32
2023-03-20T11:49:43.950Z,69.99
2023-03-20T11:50:45.628Z,71.01
2023-03-20T11:51:43.749Z,70.40
2023-03-20T11:52:44.444Z,71.01
2023-03-20T11:53:49.379Z,70.20
2023-03-20T11:54:42.274Z,69.82
2023-03-20T11:55:42.246Z,69.99
2023-03-20T11:56:59.862Z,70.03
2023-03-20T11:58:43.074Z,70.20
2023-03-20T11:59:43.038Z,68.87
2023-03-20T12:00:43.043Z,66.24
2023-03-20T12:01:43.052Z,68.25
2023-03-20T12:02:43.346Z,69.27
2023-03-20T12:03:43.242Z,69.17
2023-03-20T12:04:43.068Z,68.93
2023-03-20T12:05:43.061Z,68.84
2023-03-20T12:06:42.950Z,66.89
2023-03-20T12:07:43.037Z,66.58
2023-03-20T12:08:43.026Z,64.13
2023-03-20T12:09:42.940Z,64.87
2023-03-20T12:10:43.562Z,65.97
2023-03-20T12:11:42.906Z,65.15
2023-03-20T12:12:42.898Z,65.77
2023-03-20T12:13:42.892Z,66.28
2023-03-20T12:14:42.872Z,65.97
2023-03-20T12:15:42.881Z,65.97
2023-03-20T12:16:43.925Z,65.77
2023-03-20T12:17:42.850Z,65.46
2023-03-20T12:18:42.847Z,64.54
2023-03-20T12:19:42.834Z,66.69
2023-03-20T12:20:42.812Z,67.16
2023-03-20T12:21:42.815Z,67.68
2023-03-20T12:22:42.794Z,65.94
2023-03-20T12:23:42.812Z,65.84
2023-03-20T12:24:42.780Z,65.33
2023-03-20T12:25:42.761Z,65.02
2023-03-20T12:26:42.765Z,64.54
2023-03-20T12:27:42.734Z,65.15
2023-03-20T12:28:42.751Z,65.25
2023-03-20T12:29:42.729Z,65.53
2023-03-20T12:30:42.707Z,65.94
2023-03-20T12:31:42.833Z,66.04
2023-03-20T12:32:42.712Z,67.16
2023-03-20T12:33:42.680Z,64.13
2023-03-20T12:34:42.660Z,65.05
2023-03-20T12:35:42.695Z,65.73
2023-03-20T12:36:42.642Z,65.02
2023-03-20T12:37:42.635Z,65.15
2023-03-20T12:38:42.632Z,66.69
2023-03-20T12:39:42.598Z,65.15
2023-03-20T12:40:42.707Z,66.66
2023-03-20T12:41:42.583Z,65.63
2023-03-20T12:42:42.584Z,67.68
2023-03-20T12:43:42.605Z,67.95
2023-03-20T12:44:42.573Z,66.96
2023-03-20T12:45:44.779Z,67.57
2023-03-20T12:46:42.585Z,67.47
2023-03-20T12:47:42.549Z,67.50
2023-03-20T12:48:42.514Z,67.94
2023-03-20T12:49:42.506Z,67.94
2023-03-20T12:50:42.488Z,68.05
2023-03-20T12:51:42.484Z,69.58
2023-03-20T12:52:42.468Z,72.34
2023-03-20T12:53:42.755Z,70.50